Boynton Beach, FL (33437)

12:04 PM EDT on August 31, 2016 (GMT -0400)
| | Change Station

Elev -9999 ft 0.00 °N, 0.00 °E | Updated

Thunderstorm
Thunderstorm
85 °F
Feels Like 92 °F
N
16
Wind Variable Wind from SSE
Gusts 21 mph

Today
High -- | Low -- °F
--% Chance of Precip.
Yesterday
High -- | Low -- °F
Precip. -- in
Pressure 29.96 in
Visibility 10.0 miles
Clouds Scattered Clouds 2100 ft
Mostly Cloudy 12000 ft
Heat Index 92 °F
Dew Point 76 °F
Humidity 74%
Rainfall --
Snow Depth Not available.
7:00 AM 7:41 PM
Waning Crescent, 1% visible
METAR KPBI 311553Z 16008KT 10SM SCT021 BKN120 30/24 A2996 RMK AO2 SLP146 T03000244
Pressure 29.96 in
Visibility 10.0 miles
Clouds Scattered Clouds 2100 ft
Mostly Cloudy 12000 ft
Heat Index 92 °F
Dew Point 76 °F
Humidity 74%
Rainfall --
Snow Depth Not available.
7:00 AM 7:41 PM
Waning Crescent, 1% visible
METAR KPBI 311553Z 16008KT 10SM SCT021 BKN120 30/24 A2996 RMK AO2 SLP146 T03000244

10-Day Weather Forecast

Almanac

Astronomy

Aug. 31, 2016 Rise Set
Actual Time
Civil Twilight
Nautical Twilight
Astronomical Twilight
Moon
Length of Visible Light
Length of Day
Tomorrow will be .
, % of the Moon is Illuminated

Today's Extremes

State Highs State Lows

Community

WunderPhotos

Upload Photos

1,936,102 photos uploaded!

WunderBlog® & News

Nearby

Air Quality

  Air Quality AQ Index Pollutant
Not available.

Snow Depth

Station Depth Elevation

Earthquake Activity

City Distance Mag. Time & Date
Minimum magnitude displayed is 2.5.

Coastal Water Temperatures

Place Temperature

Stations

Nearby Weather Stations

Station Location Temp. Windchill Dew Point Humidity Wind Precip. Elev Updated Type
                   

Watches & Warnings

There are currently no watches in effect.